< < Back
Terminal Aerodrome Forecast


Current Version              Previous Versions:   1  2  3  4  5  6  7  8  9  

Terminal Aerodrome Forecast

139
FTUS44 KHUN 212320
TAFHSV
TAF
KHSV 212320Z 2200/2224 VRB03KT P6SM SKC
     FM221500 28005KT P6SM FEW035 SCT250=

Latest METAR

884
SAUS80 KWBC 221700 RRA
MTRHSV
METAR KHSV 221653Z VRB06KT 10SM SCT037 SCT250 33/22 A3011 RMK AO2 SLP188
T03280222


USA.gov is the U.S. government's official web portal to all federal, state and local government web resources and services.